Airfield :
LOGIN :

Register | Disclaimer

   EN    FR    IT 

 










Legend :    VFR   Marginal VFR   IFR   Intensive IFR   Very Intensive IFR
Visi :
Ceiling :
>= 8 km
>= 3000ft
5 to 8 km
1000 to 3000 ft
1500m to 5 km
500 to 1000 ft
800 to 1500m
200 to 500 ft
< 800m
< 200 ft
Symbols :   Thunderstorms  Fog  Heavy snow  Heavy precipitations  Wind > 20 kt
SIGMETs :     Misc.  Thunderstorms  Icing  Turbulence  Mountain Waves  Volcanic Ashes







- Airport Elevation : 844 ft
- IATA code : OSR


LKMT - Ostrava-Mosnov

CURRENT METAR :
  • 182000Z 21002KT 3000 R22/0450U R04/P2000N MIFG BR NSC 11/11 Q1020 NOSIG

EXPIRED METARs :
  • 181943Z 23003KT 3000 R22/0400 R04/1700U MIFG BR NSC 11/11 Q1020 RMK REG QNH 1017
  • 181930Z VRB02KT 4000 R22/0800 R04/P2000N MIFG BR NSC 12/11 Q1020 TEMPO 2000 BR
  • 181900Z VRB01KT 5000 R22/1200 R04/P2000N BR NSC 12/12 Q1020 TEMPO 3000 BR
  • 181830Z VRB01KT 7000 NSC 13/12 Q1020 NOSIG
  • 181800Z VRB02KT 6000 NSC 12/11 Q1020 NOSIG
  • 181730Z VRB01KT 7000 NSC 13/12 Q1019 NOSIG

TAF AMD TAF LKMT
Valid from the 18 at 19:00 until the 20 at 00:00 UTC


181937Z 1819/2000 VRB02KT 4000 BR NSC
BECMG 1819/1820 3000 BR SCT004
TEMPO 1820/1908 1400 BR BKN003
PROB40
TEMPO 1820/1907 0400 FG OVC002
BECMG 1908/1909 03008KT 8000 SCT030
TEMPO 1909/1918 4000 -RA BKN014
BECMG 1918/1920 06004KT 3000 BR BKN020
TEMPO 1921/2000 1200 BR BKN003
No reported NOTAMs for that airfield.



MET'MAP, your aeronautical weather chart ! - Copyright ORBIFLY December 2007 - Disclaimer

ORBIFLY MET'MAP TEAM :

Programming & Development : Alexandra Zaïnal
Concept & Development : Baudouin d'Aumeries
Co-Development & Prog : Marc-Olivier Méhu
Technical & hardware support : Manuel Goepfert

Contact : metmap@orbifly.com




SOURCES & CREDITS :

   NOAA